Flight Track Log - Related Links

Times and Time Zones

All times are in EDT time to prevent confusion due to time zone crossing. See the FLG3956 flight status page for this flight to view local times or setup timezone preferences in your user account.

Time Position Orientation Groundspeed Altitude Reporting Facility
EDT Latitude Longitude Course Direction KTS MPH feet Rate Location/Type
Sun 07:27:05 PM 38.9500 -77.5333 288° West 194 223 2,900  Level Potomac TRACON
Sun 07:29:00 PM 39.2774 -77.5373 344° North  Level FlightAware Approximate
Sun 07:29:05 PM 39.0567 -77.6311 325° Northwest 261 300 8,100  Level Washington Center
Sun 07:30:00 PM 39.3642 -77.5699 344° North  Level FlightAware Approximate
Sun 07:30:05 PM 39.1269 -77.6653 339° North 261 300 10,500  Level Washington Center
Sun 07:31:00 PM 39.4509 -77.5871 288° West  Level FlightAware Approximate
Sun 07:31:05 PM 39.2075 -77.7025 340° North 279 321 12,500  Level Washington Center
Sun 07:32:00 PM 39.4788 -77.6984 288° West  Level FlightAware Approximate
Sun 07:32:05 PM 39.2964 -77.7453 340° North 308 354 14,500  Level Washington Center
Sun 07:33:05 PM 39.3875 -77.7881 340° North 327 376 16,400 1,475 Climbing Washington Center
Sun 07:35:04 PM 39.5606 -77.9200 330° Northwest 391 450 18,900 1,341 Climbing Cleveland Center
Sun 07:36:04 PM 39.5969 -78.0425 291° West 354 407 20,400 1,400 Climbing Cleveland Center
Sun 07:37:04 PM 39.6350 -78.1706 291° West 359 413 21,700 1,250 Climbing Cleveland Center
Sun 07:38:04 PM 39.6711 -78.2986 290° West 372 428 22,900 1,200 Climbing Cleveland Center
Sun 07:39:04 PM 39.7092 -78.4269 291° West 382 440 24,100 1,100 Climbing Cleveland Center
Sun 07:40:04 PM 39.7489 -78.5553 292° West 387 445 25,100 900 Climbing Cleveland Center
Sun 07:41:04 PM 39.7911 -78.7025 291° West 387 445 25,900 1,000 Climbing Cleveland Center
Sun 07:42:04 PM 39.8200 -78.8181 288° West 387 445 27,100 1,050 Climbing Cleveland Center
Sun 07:43:04 PM 39.8575 -78.9497 290° West 387 445 28,000 800 Climbing Cleveland Center
Sun 07:44:04 PM 39.8989 -79.0867 292° West 387 445 28,700 650 Climbing Cleveland Center
Sun 07:45:04 PM 39.9381 -79.2183 291° West 392 451 29,300 600 Climbing Cleveland Center
Sun 07:46:04 PM 40.0000 -79.3419 303° West 392 451 29,900 350 Climbing Cleveland Center
Sun 07:47:04 PM 40.0617 -79.4656 303° West 403 464 30,000 50 Climbing Cleveland Center
Sun 07:48:04 PM 40.1275 -79.5919 304° West 410 472 30,000  Level Cleveland Center
Sun 07:49:04 PM 40.1911 -79.7217 303° West 415 478 30,000  Level Cleveland Center
Sun 07:50:04 PM 40.2525 -79.8486 302° West 415 478 30,000  Level Cleveland Center
Sun 07:51:04 PM 40.3158 -79.9758 303° West 415 478 30,000  Level Cleveland Center
Sun 07:52:04 PM 40.3831 -80.1169 302° West 415 478 30,000  Level Cleveland Center
Sun 07:53:04 PM 40.4481 -80.2503 303° West 420 483 30,000  Level Cleveland Center
Sun 07:54:04 PM 40.5172 -80.3811 305° West 426 490 30,000  Level Cleveland Center
Sun 07:55:04 PM 40.5800 -80.5119 302° West 431 496 30,000  Level Cleveland Center
Sun 07:56:04 PM 40.6403 -80.6461 301° West 431 496 30,000  Level Cleveland Center
Sun 07:57:04 PM 40.7111 -80.7775 305° West 431 496 30,000  Level Cleveland Center
Sun 07:58:04 PM 40.7733 -80.9094 302° West 436 502 30,000  Level Cleveland Center
Sun 07:59:04 PM 40.8397 -81.0469 303° West 436 502 30,000  Level Cleveland Center
Sun 08:00:04 PM 40.9014 -81.1847 301° West 431 496 30,000  Level Cleveland Center
Sun 08:01:04 PM 40.9572 -81.3033 302° West 431 496 30,000  Level Cleveland Center
Sun 08:02:04 PM 41.0186 -81.4361 302° West 431 496 30,000  Level Cleveland Center
Sun 08:03:04 PM 41.0822 -81.5692 302° West 431 496 30,000  Level Cleveland Center
Sun 08:04:04 PM 41.1519 -81.7111 303° West 431 496 30,000 -650 Level Cleveland Center
Sun 08:05:04 PM 41.2150 -81.8417 303° West 431 496 28,700 -1,800 Descending Cleveland Center
Sun 08:06:04 PM 41.2739 -81.9756 300° West 431 496 26,400 -2,250 Descending Cleveland Center
Sun 08:07:04 PM 41.3328 -82.1039 301° West 431 496 24,200 -2,200 Descending Cleveland Center
Sun 08:08:04 PM 41.3958 -82.2244 305° West 406 467 22,000 -1,950 Descending Cleveland Center
Sun 08:09:04 PM 41.4547 -82.3231 309° West 394 453 20,300 -1,850 Descending Cleveland Center
Sun 08:10:04 PM 41.5217 -82.4358 308° West 386 444 18,300 -1,901 Descending Cleveland Center
Sun 08:10:45 PM 41.5706 -82.5206 308° West 369 425 17,100 -1,600 Descending Cleveland Center
Sun 08:11:04 PM 41.5825 -82.5375 313° West 371 427 16,700 -2,066 Descending Cleveland Center
Sun 08:11:46 PM 41.6333 -82.6194 310° West 348 400 15,000 -2,100 Descending Cleveland Center
Sun 08:12:04 PM 41.6414 -82.6364 302° West 353 406 14,600 -2,060 Descending Cleveland Center
Sun 08:12:53 PM 41.7000 -82.7331 309° West 340 391 12,700 -1,418 Descending Cleveland Center
Sun 08:13:54 PM 41.7628 -82.8269 312° West 339 390 12,000 -362 Descending Cleveland Center
Sun 08:14:49 PM 41.8258 -82.9044 318° Northwest 335 386 12,000  Level Cleveland Center
Sun 08:15:04 PM 41.8403 -82.9189 323° Northwest 337 388 12,000  Level Cleveland Center
Sun 08:15:56 PM 41.8992 -82.9933 317° Northwest 330 380 12,000  Level Cleveland Center
Sun 08:17:03 PM 41.9806 -83.0861 320° Northwest 331 381 12,000  Level Cleveland Center
Sun 08:17:52 PM 42.0333 -83.1494 318° Northwest 332 382 12,000  Level Cleveland Center
Sun 08:18:47 PM 42.0822 -83.2075 319° Northwest 245 282 12,000 -333 Level Cleveland Center
Sun 08:19:04 PM 42.1006 -83.2167 340° North 294 338 11,600 -1,433 Descending Cleveland Center
Sun 08:19:54 PM 42.1564 -83.2358 346° North 230 265 10,400 -1,514 Descending Cleveland Center
Sun 08:20:55 PM 42.2156 -83.2103 18° North 227 261 8,800 -1,828 Descending Cleveland Center
Sun 08:22:02 PM 42.2792 -83.1622 29° Northeast 234 269 6,500 -1,869 Descending Cleveland Center
Sun 08:22:57 PM 42.3339 -83.1308 23° Northeast 241 277 5,000 -1,180 Descending Cleveland Center
Sun 08:24:04 PM 42.3572 -83.2047 293° West 213 245 4,100 -806 Descending Cleveland Center

Login

Don't have an account? Register now (free) for customized features, flight alerts, and more!